sensor_id;sensor_type;location;lat;lon;timestamp;P1;durP1;ratioP1;P2;durP2;ratioP2
17917;SDS011;9084;50.956;3.106;2023-06-26T00:01:33;7.03;;;3.30;;
17917;SDS011;9084;50.956;3.106;2023-06-26T00:04:01;3.78;;;3.28;;
17917;SDS011;9084;50.956;3.106;2023-06-26T00:06:29;4.82;;;3.05;;
17917;SDS011;9084;50.956;3.106;2023-06-26T00:08:57;7.10;;;2.70;;
17917;SDS011;9084;50.956;3.106;2023-06-26T00:11:25;5.32;;;3.40;;
17917;SDS011;9084;50.956;3.106;2023-06-26T00:13:58;6.32;;;3.85;;
17917;SDS011;9084;50.956;3.106;2023-06-26T00:16:27;7.20;;;3.53;;
17917;SDS011;9084;50.956;3.106;2023-06-26T00:18:54;6.78;;;3.17;;
17917;SDS011;9084;50.956;3.106;2023-06-26T00:21:19;5.68;;;3.08;;
17917;SDS011;9084;50.956;3.106;2023-06-26T00:23:45;6.45;;;3.25;;
17917;SDS011;9084;50.956;3.106;2023-06-26T00:26:11;3.78;;;3.17;;
17917;SDS011;9084;50.956;3.106;2023-06-26T00:28:41;9.52;;;3.50;;
17917;SDS011;9084;50.956;3.106;2023-06-26T00:31:09;7.22;;;3.53;;
17917;SDS011;9084;50.956;3.106;2023-06-26T00:33:37;6.95;;;3.60;;
17917;SDS011;9084;50.956;3.106;2023-06-26T00:36:03;6.10;;;3.90;;
17917;SDS011;9084;50.956;3.106;2023-06-26T00:38:31;8.40;;;4.25;;
17917;SDS011;9084;50.956;3.106;2023-06-26T00:40:57;7.15;;;3.85;;
17917;SDS011;9084;50.956;3.106;2023-06-26T00:43:22;6.80;;;3.80;;
17917;SDS011;9084;50.956;3.106;2023-06-26T00:45:48;8.50;;;3.67;;
17917;SDS011;9084;50.956;3.106;2023-06-26T00:48:16;8.98;;;3.58;;
17917;SDS011;9084;50.956;3.106;2023-06-26T00:50:45;7.22;;;3.30;;
17917;SDS011;9084;50.956;3.106;2023-06-26T00:53:13;6.63;;;3.72;;
17917;SDS011;9084;50.956;3.106;2023-06-26T00:55:39;8.23;;;4.07;;
17917;SDS011;9084;50.956;3.106;2023-06-26T00:58:05;7.10;;;3.88;;
17917;SDS011;9084;50.956;3.106;2023-06-26T01:00:33;8.73;;;5.03;;
17917;SDS011;9084;50.956;3.106;2023-06-26T01:03:03;9.32;;;3.88;;
17917;SDS011;9084;50.956;3.106;2023-06-26T01:05:31;11.07;;;4.82;;
17917;SDS011;9084;50.956;3.106;2023-06-26T01:07:57;8.70;;;4.55;;
17917;SDS011;9084;50.956;3.106;2023-06-26T01:10:23;9.48;;;4.65;;
17917;SDS011;9084;50.956;3.106;2023-06-26T01:12:54;6.85;;;4.18;;
17917;SDS011;9084;50.956;3.106;2023-06-26T01:15:20;12.15;;;4.40;;
17917;SDS011;9084;50.956;3.106;2023-06-26T01:17:48;8.40;;;3.75;;
17917;SDS011;9084;50.956;3.106;2023-06-26T01:20:15;9.38;;;4.30;;
17917;SDS011;9084;50.956;3.106;2023-06-26T01:25:41;10.00;;;4.55;;
17917;SDS011;9084;50.956;3.106;2023-06-26T01:28:15;7.75;;;3.95;;
17917;SDS011;9084;50.956;3.106;2023-06-26T01:30:43;9.63;;;3.97;;
17917;SDS011;9084;50.956;3.106;2023-06-26T01:33:10;7.80;;;3.83;;
17917;SDS011;9084;50.956;3.106;2023-06-26T01:35:37;10.05;;;4.35;;
17917;SDS011;9084;50.956;3.106;2023-06-26T01:40:39;11.20;;;4.32;;
17917;SDS011;9084;50.956;3.106;2023-06-26T01:43:06;8.68;;;4.40;;
17917;SDS011;9084;50.956;3.106;2023-06-26T01:45:48;10.73;;;4.93;;
17917;SDS011;9084;50.956;3.106;2023-06-26T01:48:16;7.03;;;4.18;;
17917;SDS011;9084;50.956;3.106;2023-06-26T01:50:49;10.77;;;4.78;;
17917;SDS011;9084;50.956;3.106;2023-06-26T01:53:17;8.80;;;4.22;;
17917;SDS011;9084;50.956;3.106;2023-06-26T01:55:51;11.93;;;4.95;;
17917;SDS011;9084;50.956;3.106;2023-06-26T01:58:22;9.77;;;4.70;;
17917;SDS011;9084;50.956;3.106;2023-06-26T02:00:50;7.38;;;4.30;;
17917;SDS011;9084;50.956;3.106;2023-06-26T02:03:18;8.00;;;4.28;;
17917;SDS011;9084;50.956;3.106;2023-06-26T02:05:45;8.70;;;4.03;;
17917;SDS011;9084;50.956;3.106;2023-06-26T02:08:13;11.38;;;3.60;;
17917;SDS011;9084;50.956;3.106;2023-06-26T02:10:42;10.35;;;4.25;;
17917;SDS011;9084;50.956;3.106;2023-06-26T02:13:07;10.38;;;3.92;;
17917;SDS011;9084;50.956;3.106;2023-06-26T02:15:35;13.77;;;5.10;;
17917;SDS011;9084;50.956;3.106;2023-06-26T02:18:01;9.30;;;4.38;;
17917;SDS011;9084;50.956;3.106;2023-06-26T02:20:26;9.48;;;4.00;;
17917;SDS011;9084;50.956;3.106;2023-06-26T02:22:52;9.38;;;4.10;;
17917;SDS011;9084;50.956;3.106;2023-06-26T02:25:20;9.18;;;3.78;;
17917;SDS011;9084;50.956;3.106;2023-06-26T02:27:45;8.32;;;3.95;;
17917;SDS011;9084;50.956;3.106;2023-06-26T02:30:13;8.32;;;3.97;;
17917;SDS011;9084;50.956;3.106;2023-06-26T02:32:39;6.72;;;2.95;;
17917;SDS011;9084;50.956;3.106;2023-06-26T02:35:05;7.55;;;3.40;;
17917;SDS011;9084;50.956;3.106;2023-06-26T02:37:31;11.38;;;3.90;;
17917;SDS011;9084;50.956;3.106;2023-06-26T02:39:56;11.95;;;3.60;;
17917;SDS011;9084;50.956;3.106;2023-06-26T02:42:24;6.30;;;3.70;;
17917;SDS011;9084;50.956;3.106;2023-06-26T02:44:50;9.35;;;3.70;;
17917;SDS011;9084;50.956;3.106;2023-06-26T02:47:15;7.18;;;3.85;;
17917;SDS011;9084;50.956;3.106;2023-06-26T02:49:41;11.63;;;4.05;;
17917;SDS011;9084;50.956;3.106;2023-06-26T02:52:09;7.43;;;3.33;;
17917;SDS011;9084;50.956;3.106;2023-06-26T02:54:37;8.95;;;4.07;;
17917;SDS011;9084;50.956;3.106;2023-06-26T02:57:02;9.70;;;3.30;;
17917;SDS011;9084;50.956;3.106;2023-06-26T02:59:34;9.15;;;3.55;;
17917;SDS011;9084;50.956;3.106;2023-06-26T03:01:59;7.30;;;3.03;;
17917;SDS011;9084;50.956;3.106;2023-06-26T03:04:25;9.50;;;3.33;;
17917;SDS011;9084;50.956;3.106;2023-06-26T03:06:55;7.30;;;2.78;;
17917;SDS011;9084;50.956;3.106;2023-06-26T03:09:21;7.50;;;3.03;;
17917;SDS011;9084;50.956;3.106;2023-06-26T03:11:47;6.72;;;2.72;;
17917;SDS011;9084;50.956;3.106;2023-06-26T03:14:15;8.02;;;3.38;;
17917;SDS011;9084;50.956;3.106;2023-06-26T03:16:41;6.43;;;2.80;;
17917;SDS011;9084;50.956;3.106;2023-06-26T03:19:07;10.15;;;3.38;;
17917;SDS011;9084;50.956;3.106;2023-06-26T03:21:32;8.75;;;2.53;;
17917;SDS011;9084;50.956;3.106;2023-06-26T03:23:58;7.57;;;3.03;;
17917;SDS011;9084;50.956;3.106;2023-06-26T03:26:24;8.60;;;3.20;;
17917;SDS011;9084;50.956;3.106;2023-06-26T03:28:52;8.77;;;2.47;;
17917;SDS011;9084;50.956;3.106;2023-06-26T03:31:20;11.70;;;2.97;;
17917;SDS011;9084;50.956;3.106;2023-06-26T03:33:48;8.95;;;2.63;;
17917;SDS011;9084;50.956;3.106;2023-06-26T03:36:14;8.20;;;2.85;;
17917;SDS011;9084;50.956;3.106;2023-06-26T03:38:39;5.75;;;2.35;;
17917;SDS011;9084;50.956;3.106;2023-06-26T03:41:06;7.95;;;2.50;;
17917;SDS011;9084;50.956;3.106;2023-06-26T03:43:31;4.20;;;2.22;;
17917;SDS011;9084;50.956;3.106;2023-06-26T03:45:57;7.13;;;2.45;;
17917;SDS011;9084;50.956;3.106;2023-06-26T03:48:23;5.22;;;2.20;;
17917;SDS011;9084;50.956;3.106;2023-06-26T03:50:48;3.40;;;1.77;;
17917;SDS011;9084;50.956;3.106;2023-06-26T03:53:14;2.95;;;1.77;;
17917;SDS011;9084;50.956;3.106;2023-06-26T03:55:40;8.20;;;2.05;;
17917;SDS011;9084;50.956;3.106;2023-06-26T03:58:08;4.68;;;1.98;;
17917;SDS011;9084;50.956;3.106;2023-06-26T04:00:36;5.75;;;2.00;;
17917;SDS011;9084;50.956;3.106;2023-06-26T04:03:05;8.15;;;2.17;;
17917;SDS011;9084;50.956;3.106;2023-06-26T04:05:34;5.65;;;2.10;;
17917;SDS011;9084;50.956;3.106;2023-06-26T04:08:01;3.88;;;1.65;;
17917;SDS011;9084;50.956;3.106;2023-06-26T04:10:30;4.60;;;2.22;;
17917;SDS011;9084;50.956;3.106;2023-06-26T04:12:55;6.07;;;1.95;;
17917;SDS011;9084;50.956;3.106;2023-06-26T04:15:23;3.30;;;1.50;;
17917;SDS011;9084;50.956;3.106;2023-06-26T04:17:49;8.70;;;1.83;;
17917;SDS011;9084;50.956;3.106;2023-06-26T04:20:16;3.42;;;1.70;;
17917;SDS011;9084;50.956;3.106;2023-06-26T04:22:42;3.97;;;1.73;;
17917;SDS011;9084;50.956;3.106;2023-06-26T04:25:08;5.68;;;1.67;;
17917;SDS011;9084;50.956;3.106;2023-06-26T04:27:39;6.72;;;1.70;;
17917;SDS011;9084;50.956;3.106;2023-06-26T04:30:05;3.47;;;1.65;;
17917;SDS011;9084;50.956;3.106;2023-06-26T04:32:31;4.43;;;1.60;;
17917;SDS011;9084;50.956;3.106;2023-06-26T04:34:59;3.50;;;1.50;;
17917;SDS011;9084;50.956;3.106;2023-06-26T04:37:25;3.80;;;1.40;;
17917;SDS011;9084;50.956;3.106;2023-06-26T04:39:51;2.80;;;1.50;;
17917;SDS011;9084;50.956;3.106;2023-06-26T04:42:19;5.72;;;1.50;;
17917;SDS011;9084;50.956;3.106;2023-06-26T04:44:47;4.78;;;1.45;;
17917;SDS011;9084;50.956;3.106;2023-06-26T04:47:12;3.88;;;1.63;;
17917;SDS011;9084;50.956;3.106;2023-06-26T04:49:40;6.22;;;2.00;;
17917;SDS011;9084;50.956;3.106;2023-06-26T04:52:13;3.58;;;1.60;;
17917;SDS011;9084;50.956;3.106;2023-06-26T04:54:41;2.58;;;1.50;;
17917;SDS011;9084;50.956;3.106;2023-06-26T04:57:07;6.07;;;1.80;;
17917;SDS011;9084;50.956;3.106;2023-06-26T04:59:33;3.05;;;1.67;;
17917;SDS011;9084;50.956;3.106;2023-06-26T05:01:59;2.83;;;1.35;;
17917;SDS011;9084;50.956;3.106;2023-06-26T05:04:30;6.05;;;1.60;;
17917;SDS011;9084;50.956;3.106;2023-06-26T05:06:57;4.68;;;1.67;;
17917;SDS011;9084;50.956;3.106;2023-06-26T05:09:23;2.10;;;1.30;;
17917;SDS011;9084;50.956;3.106;2023-06-26T05:11:49;4.95;;;1.50;;
17917;SDS011;9084;50.956;3.106;2023-06-26T05:14:16;4.80;;;1.58;;
17917;SDS011;9084;50.956;3.106;2023-06-26T05:16:42;4.70;;;1.73;;
17917;SDS011;9084;50.956;3.106;2023-06-26T05:19:08;4.43;;;1.70;;
17917;SDS011;9084;50.956;3.106;2023-06-26T05:21:34;5.38;;;1.67;;
17917;SDS011;9084;50.956;3.106;2023-06-26T05:24:00;4.28;;;1.25;;
17917;SDS011;9084;50.956;3.106;2023-06-26T05:26:28;2.75;;;1.42;;
17917;SDS011;9084;50.956;3.106;2023-06-26T05:28:56;5.45;;;1.52;;
17917;SDS011;9084;50.956;3.106;2023-06-26T05:31:25;3.83;;;1.73;;
17917;SDS011;9084;50.956;3.106;2023-06-26T05:33:55;5.55;;;1.98;;
17917;SDS011;9084;50.956;3.106;2023-06-26T05:36:22;3.28;;;1.45;;
17917;SDS011;9084;50.956;3.106;2023-06-26T05:38:49;3.25;;;1.83;;
17917;SDS011;9084;50.956;3.106;2023-06-26T05:41:16;6.25;;;1.70;;
17917;SDS011;9084;50.956;3.106;2023-06-26T05:43:41;2.15;;;1.25;;
17917;SDS011;9084;50.956;3.106;2023-06-26T05:46:07;3.45;;;1.40;;
17917;SDS011;9084;50.956;3.106;2023-06-26T05:48:33;2.40;;;1.25;;
17917;SDS011;9084;50.956;3.106;2023-06-26T05:51:01;2.22;;;1.27;;
17917;SDS011;9084;50.956;3.106;2023-06-26T05:53:30;3.03;;;1.60;;
17917;SDS011;9084;50.956;3.106;2023-06-26T05:55:56;3.35;;;1.67;;
17917;SDS011;9084;50.956;3.106;2023-06-26T05:58:23;2.80;;;1.17;;
17917;SDS011;9084;50.956;3.106;2023-06-26T06:00:51;5.00;;;1.40;;
17917;SDS011;9084;50.956;3.106;2023-06-26T06:03:16;4.97;;;1.42;;
17917;SDS011;9084;50.956;3.106;2023-06-26T06:05:42;5.85;;;1.98;;
17917;SDS011;9084;50.956;3.106;2023-06-26T06:08:10;3.28;;;1.67;;
17917;SDS011;9084;50.956;3.106;2023-06-26T06:10:38;4.93;;;1.52;;
17917;SDS011;9084;50.956;3.106;2023-06-26T06:13:03;3.17;;;1.33;;
17917;SDS011;9084;50.956;3.106;2023-06-26T06:15:34;3.47;;;1.27;;
17917;SDS011;9084;50.956;3.106;2023-06-26T06:18:00;3.28;;;1.50;;
17917;SDS011;9084;50.956;3.106;2023-06-26T06:20:26;4.90;;;1.92;;
17917;SDS011;9084;50.956;3.106;2023-06-26T06:22:51;4.93;;;1.75;;
17917;SDS011;9084;50.956;3.106;2023-06-26T06:25:20;2.75;;;1.58;;
17917;SDS011;9084;50.956;3.106;2023-06-26T06:27:48;3.67;;;1.90;;
17917;SDS011;9084;50.956;3.106;2023-06-26T06:30:16;7.05;;;1.65;;
17917;SDS011;9084;50.956;3.106;2023-06-26T06:32:42;4.32;;;1.92;;
17917;SDS011;9084;50.956;3.106;2023-06-26T06:35:10;2.42;;;1.30;;
17917;SDS011;9084;50.956;3.106;2023-06-26T06:37:39;3.83;;;1.98;;
17917;SDS011;9084;50.956;3.106;2023-06-26T06:40:05;4.65;;;1.70;;
17917;SDS011;9084;50.956;3.106;2023-06-26T06:42:31;4.50;;;1.60;;
17917;SDS011;9084;50.956;3.106;2023-06-26T06:44:58;5.97;;;1.77;;
17917;SDS011;9084;50.956;3.106;2023-06-26T06:47:29;6.20;;;1.58;;
17917;SDS011;9084;50.956;3.106;2023-06-26T06:49:57;5.90;;;1.88;;
17917;SDS011;9084;50.956;3.106;2023-06-26T06:52:32;6.30;;;1.85;;
17917;SDS011;9084;50.956;3.106;2023-06-26T06:55:02;5.38;;;1.60;;
17917;SDS011;9084;50.956;3.106;2023-06-26T06:57:36;3.53;;;1.23;;
17917;SDS011;9084;50.956;3.106;2023-06-26T07:00:07;4.13;;;1.50;;
17917;SDS011;9084;50.956;3.106;2023-06-26T07:02:39;4.15;;;1.60;;
17917;SDS011;9084;50.956;3.106;2023-06-26T07:05:07;3.88;;;1.33;;
17917;SDS011;9084;50.956;3.106;2023-06-26T07:07:34;5.82;;;1.75;;
17917;SDS011;9084;50.956;3.106;2023-06-26T07:10:03;4.10;;;1.95;;
17917;SDS011;9084;50.956;3.106;2023-06-26T07:12:36;5.60;;;1.55;;
17917;SDS011;9084;50.956;3.106;2023-06-26T07:15:03;6.22;;;1.90;;
17917;SDS011;9084;50.956;3.106;2023-06-26T07:17:30;4.32;;;1.77;;
17917;SDS011;9084;50.956;3.106;2023-06-26T07:19:59;3.58;;;1.70;;
17917;SDS011;9084;50.956;3.106;2023-06-26T07:22:30;5.20;;;2.05;;
17917;SDS011;9084;50.956;3.106;2023-06-26T07:24:56;2.75;;;1.70;;
17917;SDS011;9084;50.956;3.106;2023-06-26T07:27:23;6.45;;;1.73;;
17917;SDS011;9084;50.956;3.106;2023-06-26T07:29:52;5.88;;;1.52;;
17917;SDS011;9084;50.956;3.106;2023-06-26T07:32:17;5.05;;;1.67;;
17917;SDS011;9084;50.956;3.106;2023-06-26T07:34:43;4.57;;;1.70;;
17917;SDS011;9084;50.956;3.106;2023-06-26T07:37:08;5.07;;;1.45;;
17917;SDS011;9084;50.956;3.106;2023-06-26T07:39:34;5.45;;;1.92;;
17917;SDS011;9084;50.956;3.106;2023-06-26T07:42:00;3.42;;;1.40;;
17917;SDS011;9084;50.956;3.106;2023-06-26T07:44:25;4.30;;;1.85;;
17917;SDS011;9084;50.956;3.106;2023-06-26T07:46:56;5.57;;;1.70;;
17917;SDS011;9084;50.956;3.106;2023-06-26T07:49:24;2.85;;;1.77;;
17917;SDS011;9084;50.956;3.106;2023-06-26T07:51:50;4.45;;;1.80;;
17917;SDS011;9084;50.956;3.106;2023-06-26T07:54:17;6.72;;;1.95;;
17917;SDS011;9084;50.956;3.106;2023-06-26T07:56:56;3.78;;;1.83;;
17917;SDS011;9084;50.956;3.106;2023-06-26T07:59:26;3.63;;;2.05;;
17917;SDS011;9084;50.956;3.106;2023-06-26T08:01:56;5.60;;;2.60;;
17917;SDS011;9084;50.956;3.106;2023-06-26T08:04:25;6.38;;;2.40;;
17917;SDS011;9084;50.956;3.106;2023-06-26T08:06:56;4.93;;;2.60;;
17917;SDS011;9084;50.956;3.106;2023-06-26T08:09:23;4.97;;;2.15;;
17917;SDS011;9084;50.956;3.106;2023-06-26T08:11:51;5.60;;;1.92;;
17917;SDS011;9084;50.956;3.106;2023-06-26T08:14:19;6.03;;;2.03;;
17917;SDS011;9084;50.956;3.106;2023-06-26T08:16:48;5.03;;;1.92;;
17917;SDS011;9084;50.956;3.106;2023-06-26T08:19:15;5.10;;;1.52;;
17917;SDS011;9084;50.956;3.106;2023-06-26T08:21:44;3.30;;;1.48;;
17917;SDS011;9084;50.956;3.106;2023-06-26T08:24:13;3.40;;;1.63;;
17917;SDS011;9084;50.956;3.106;2023-06-26T08:26:44;7.05;;;2.15;;
17917;SDS011;9084;50.956;3.106;2023-06-26T08:29:11;3.03;;;1.50;;
17917;SDS011;9084;50.956;3.106;2023-06-26T08:31:41;5.13;;;1.70;;
17917;SDS011;9084;50.956;3.106;2023-06-26T08:34:10;4.95;;;1.67;;
17917;SDS011;9084;50.956;3.106;2023-06-26T08:36:35;3.80;;;1.90;;
17917;SDS011;9084;50.956;3.106;2023-06-26T08:39:01;6.72;;;2.20;;
17917;SDS011;9084;50.956;3.106;2023-06-26T08:41:30;3.80;;;1.83;;
17917;SDS011;9084;50.956;3.106;2023-06-26T08:43:58;3.75;;;1.40;;
17917;SDS011;9084;50.956;3.106;2023-06-26T08:46:24;4.40;;;1.90;;
17917;SDS011;9084;50.956;3.106;2023-06-26T08:48:57;2.40;;;1.50;;
17917;SDS011;9084;50.956;3.106;2023-06-26T08:51:45;4.45;;;1.63;;
17917;SDS011;9084;50.956;3.106;2023-06-26T08:54:20;4.43;;;1.63;;
17917;SDS011;9084;50.956;3.106;2023-06-26T08:56:53;4.65;;;1.20;;
17917;SDS011;9084;50.956;3.106;2023-06-26T08:59:20;4.60;;;1.40;;
17917;SDS011;9084;50.956;3.106;2023-06-26T09:01:48;2.17;;;1.23;;
17917;SDS011;9084;50.956;3.106;2023-06-26T09:04:15;3.22;;;1.60;;
17917;SDS011;9084;50.956;3.106;2023-06-26T09:06:43;3.20;;;1.23;;
17917;SDS011;9084;50.956;3.106;2023-06-26T09:09:09;2.85;;;1.40;;
17917;SDS011;9084;50.956;3.106;2023-06-26T09:11:35;3.17;;;1.30;;
17917;SDS011;9084;50.956;3.106;2023-06-26T09:14:03;3.38;;;1.50;;
17917;SDS011;9084;50.956;3.106;2023-06-26T09:16:38;3.17;;;1.10;;
17917;SDS011;9084;50.956;3.106;2023-06-26T09:19:12;1.67;;;1.05;;
17917;SDS011;9084;50.956;3.106;2023-06-26T09:21:39;3.08;;;1.30;;
17917;SDS011;9084;50.956;3.106;2023-06-26T09:24:11;5.90;;;1.73;;
17917;SDS011;9084;50.956;3.106;2023-06-26T09:26:38;4.35;;;1.70;;
17917;SDS011;9084;50.956;3.106;2023-06-26T09:29:08;5.60;;;1.35;;
17917;SDS011;9084;50.956;3.106;2023-06-26T09:31:39;2.88;;;1.52;;
17917;SDS011;9084;50.956;3.106;2023-06-26T09:34:08;4.65;;;1.65;;
17917;SDS011;9084;50.956;3.106;2023-06-26T09:36:37;2.53;;;1.13;;
17917;SDS011;9084;50.956;3.106;2023-06-26T09:39:03;3.63;;;1.20;;
17917;SDS011;9084;50.956;3.106;2023-06-26T09:41:35;4.03;;;1.25;;
17917;SDS011;9084;50.956;3.106;2023-06-26T09:44:06;2.15;;;0.90;;
17917;SDS011;9084;50.956;3.106;2023-06-26T09:46:34;5.40;;;1.10;;
17917;SDS011;9084;50.956;3.106;2023-06-26T09:49:09;3.85;;;1.67;;
17917;SDS011;9084;50.956;3.106;2023-06-26T09:51:38;6.32;;;1.17;;
17917;SDS011;9084;50.956;3.106;2023-06-26T09:54:07;2.53;;;1.38;;
17917;SDS011;9084;50.956;3.106;2023-06-26T09:56:36;4.40;;;1.13;;
17917;SDS011;9084;50.956;3.106;2023-06-26T09:59:03;4.03;;;1.17;;
17917;SDS011;9084;50.956;3.106;2023-06-26T10:01:30;5.03;;;1.27;;
17917;SDS011;9084;50.956;3.106;2023-06-26T10:03:57;2.97;;;1.23;;
17917;SDS011;9084;50.956;3.106;2023-06-26T10:09:02;3.67;;;1.30;;
17917;SDS011;9084;50.956;3.106;2023-06-26T10:11:37;4.43;;;1.30;;
17917;SDS011;9084;50.956;3.106;2023-06-26T10:14:09;4.15;;;1.15;;
17917;SDS011;9084;50.956;3.106;2023-06-26T10:16:36;3.97;;;1.63;;
17917;SDS011;9084;50.956;3.106;2023-06-26T10:19:05;3.58;;;1.27;;
17917;SDS011;9084;50.956;3.106;2023-06-26T10:21:33;3.10;;;1.20;;
17917;SDS011;9084;50.956;3.106;2023-06-26T10:24:00;2.38;;;1.05;;
17917;SDS011;9084;50.956;3.106;2023-06-26T10:26:31;2.97;;;1.35;;
17917;SDS011;9084;50.956;3.106;2023-06-26T10:29:03;2.45;;;1.13;;
17917;SDS011;9084;50.956;3.106;2023-06-26T10:31:31;3.25;;;1.20;;
17917;SDS011;9084;50.956;3.106;2023-06-26T10:33:58;2.15;;;1.30;;
17917;SDS011;9084;50.956;3.106;2023-06-26T10:36:28;3.35;;;1.25;;
17917;SDS011;9084;50.956;3.106;2023-06-26T10:38:58;2.53;;;1.00;;
17917;SDS011;9084;50.956;3.106;2023-06-26T10:41:30;5.18;;;1.35;;
17917;SDS011;9084;50.956;3.106;2023-06-26T10:46:30;2.55;;;1.00;;
17917;SDS011;9084;50.956;3.106;2023-06-26T10:49:13;3.08;;;1.08;;
17917;SDS011;9084;50.956;3.106;2023-06-26T10:51:38;3.97;;;1.10;;
17917;SDS011;9084;50.956;3.106;2023-06-26T10:54:13;2.10;;;1.00;;
17917;SDS011;9084;50.956;3.106;2023-06-26T10:56:41;4.13;;;1.20;;
17917;SDS011;9084;50.956;3.106;2023-06-26T10:59:28;3.25;;;1.20;;
17917;SDS011;9084;50.956;3.106;2023-06-26T11:02:00;3.22;;;1.30;;
17917;SDS011;9084;50.956;3.106;2023-06-26T11:04:36;3.65;;;1.40;;
17917;SDS011;9084;50.956;3.106;2023-06-26T11:07:14;2.80;;;1.20;;
17917;SDS011;9084;50.956;3.106;2023-06-26T11:09:53;3.28;;;1.23;;
17917;SDS011;9084;50.956;3.106;2023-06-26T11:12:41;3.83;;;1.05;;
17917;SDS011;9084;50.956;3.106;2023-06-26T11:15:13;3.10;;;1.17;;
17917;SDS011;9084;50.956;3.106;2023-06-26T11:17:42;3.25;;;1.20;;
17917;SDS011;9084;50.956;3.106;2023-06-26T11:20:09;2.03;;;1.20;;
17917;SDS011;9084;50.956;3.106;2023-06-26T11:22:41;4.05;;;1.27;;
17917;SDS011;9084;50.956;3.106;2023-06-26T11:25:09;3.42;;;1.45;;
17917;SDS011;9084;50.956;3.106;2023-06-26T11:27:42;5.82;;;1.77;;
17917;SDS011;9084;50.956;3.106;2023-06-26T11:30:21;3.50;;;1.30;;
17917;SDS011;9084;50.956;3.106;2023-06-26T11:32:51;2.53;;;1.02;;
17917;SDS011;9084;50.956;3.106;2023-06-26T11:35:31;4.97;;;1.23;;
17917;SDS011;9084;50.956;3.106;2023-06-26T11:38:02;3.17;;;1.20;;
17917;SDS011;9084;50.956;3.106;2023-06-26T11:40:34;3.55;;;1.30;;
17917;SDS011;9084;50.956;3.106;2023-06-26T11:43:01;2.20;;;1.00;;
17917;SDS011;9084;50.956;3.106;2023-06-26T11:45:31;3.95;;;1.80;;
17917;SDS011;9084;50.956;3.106;2023-06-26T11:47:59;4.38;;;1.23;;
17917;SDS011;9084;50.956;3.106;2023-06-26T11:50:26;7.55;;;1.80;;
17917;SDS011;9084;50.956;3.106;2023-06-26T11:53:01;1.95;;;1.02;;
17917;SDS011;9084;50.956;3.106;2023-06-26T11:55:39;3.63;;;1.10;;
17917;SDS011;9084;50.956;3.106;2023-06-26T11:58:07;1.25;;;0.82;;
17917;SDS011;9084;50.956;3.106;2023-06-26T12:00:43;2.53;;;1.60;;
17917;SDS011;9084;50.956;3.106;2023-06-26T12:03:09;3.92;;;1.38;;
17917;SDS011;9084;50.956;3.106;2023-06-26T12:05:35;6.20;;;1.55;;
17917;SDS011;9084;50.956;3.106;2023-06-26T12:08:03;3.25;;;1.45;;
17917;SDS011;9084;50.956;3.106;2023-06-26T12:10:31;3.90;;;1.30;;
17917;SDS011;9084;50.956;3.106;2023-06-26T12:12:58;5.93;;;1.35;;
17917;SDS011;9084;50.956;3.106;2023-06-26T12:15:29;6.35;;;1.85;;
17917;SDS011;9084;50.956;3.106;2023-06-26T12:17:54;5.30;;;1.50;;
17917;SDS011;9084;50.956;3.106;2023-06-26T12:20:21;4.35;;;1.50;;
17917;SDS011;9084;50.956;3.106;2023-06-26T12:22:49;3.25;;;1.40;;
17917;SDS011;9084;50.956;3.106;2023-06-26T12:25:23;2.60;;;1.40;;
17917;SDS011;9084;50.956;3.106;2023-06-26T12:27:49;6.40;;;1.48;;
17917;SDS011;9084;50.956;3.106;2023-06-26T12:30:15;3.80;;;1.63;;
17917;SDS011;9084;50.956;3.106;2023-06-26T12:32:44;4.68;;;1.73;;
17917;SDS011;9084;50.956;3.106;2023-06-26T12:35:11;5.38;;;1.60;;
17917;SDS011;9084;50.956;3.106;2023-06-26T12:37:41;3.25;;;1.73;;
17917;SDS011;9084;50.956;3.106;2023-06-26T12:40:18;3.45;;;1.85;;
17917;SDS011;9084;50.956;3.106;2023-06-26T12:42:49;5.75;;;1.83;;
17917;SDS011;9084;50.956;3.106;2023-06-26T12:45:17;4.70;;;1.48;;
17917;SDS011;9084;50.956;3.106;2023-06-26T12:47:45;6.22;;;1.52;;
17917;SDS011;9084;50.956;3.106;2023-06-26T12:50:11;2.22;;;1.27;;
17917;SDS011;9084;50.956;3.106;2023-06-26T12:52:37;2.88;;;1.10;;
17917;SDS011;9084;50.956;3.106;2023-06-26T12:55:03;1.80;;;0.93;;
17917;SDS011;9084;50.956;3.106;2023-06-26T12:57:33;3.03;;;1.20;;
17917;SDS011;9084;50.956;3.106;2023-06-26T12:59:58;3.10;;;1.02;;
17917;SDS011;9084;50.956;3.106;2023-06-26T13:02:28;1.52;;;1.00;;
17917;SDS011;9084;50.956;3.106;2023-06-26T13:04:54;1.83;;;0.80;;
17917;SDS011;9084;50.956;3.106;2023-06-26T13:07:19;2.88;;;0.93;;
17917;SDS011;9084;50.956;3.106;2023-06-26T13:09:45;2.03;;;1.08;;
17917;SDS011;9084;50.956;3.106;2023-06-26T13:12:15;2.35;;;1.00;;
17917;SDS011;9084;50.956;3.106;2023-06-26T13:14:41;4.03;;;1.05;;
17917;SDS011;9084;50.956;3.106;2023-06-26T13:17:07;1.50;;;0.80;;
17917;SDS011;9084;50.956;3.106;2023-06-26T13:19:32;1.88;;;1.00;;
17917;SDS011;9084;50.956;3.106;2023-06-26T13:21:58;1.85;;;0.82;;
17917;SDS011;9084;50.956;3.106;2023-06-26T13:24:26;2.92;;;0.95;;
17917;SDS011;9084;50.956;3.106;2023-06-26T13:26:51;2.65;;;1.00;;
17917;SDS011;9084;50.956;3.106;2023-06-26T13:29:19;2.13;;;0.88;;
17917;SDS011;9084;50.956;3.106;2023-06-26T13:31:45;4.20;;;0.93;;
17917;SDS011;9084;50.956;3.106;2023-06-26T13:34:22;2.00;;;0.93;;
17917;SDS011;9084;50.956;3.106;2023-06-26T13:36:48;1.23;;;1.05;;
17917;SDS011;9084;50.956;3.106;2023-06-26T13:39:16;3.30;;;1.08;;
17917;SDS011;9084;50.956;3.106;2023-06-26T13:41:42;2.00;;;1.10;;
17917;SDS011;9084;50.956;3.106;2023-06-26T13:44:10;1.42;;;0.90;;
17917;SDS011;9084;50.956;3.106;2023-06-26T13:46:38;3.00;;;0.75;;
17917;SDS011;9084;50.956;3.106;2023-06-26T13:49:08;3.22;;;1.05;;
17917;SDS011;9084;50.956;3.106;2023-06-26T13:51:33;2.10;;;0.88;;
17917;SDS011;9084;50.956;3.106;2023-06-26T13:53:59;1.58;;;0.80;;
17917;SDS011;9084;50.956;3.106;2023-06-26T13:56:28;3.33;;;0.93;;
17917;SDS011;9084;50.956;3.106;2023-06-26T13:58:55;2.17;;;1.00;;
17917;SDS011;9084;50.956;3.106;2023-06-26T14:01:21;4.10;;;1.23;;
17917;SDS011;9084;50.956;3.106;2023-06-26T14:03:50;3.58;;;0.93;;
17917;SDS011;9084;50.956;3.106;2023-06-26T14:06:16;2.78;;;1.30;;
17917;SDS011;9084;50.956;3.106;2023-06-26T14:08:46;3.33;;;1.05;;
17917;SDS011;9084;50.956;3.106;2023-06-26T14:11:14;2.88;;;1.23;;
17917;SDS011;9084;50.956;3.106;2023-06-26T14:13:40;2.00;;;1.08;;
17917;SDS011;9084;50.956;3.106;2023-06-26T14:16:11;3.42;;;1.10;;
17917;SDS011;9084;50.956;3.106;2023-06-26T14:18:37;3.58;;;1.20;;
17917;SDS011;9084;50.956;3.106;2023-06-26T14:21:03;4.75;;;1.40;;
17917;SDS011;9084;50.956;3.106;2023-06-26T14:23:33;3.03;;;1.38;;
17917;SDS011;9084;50.956;3.106;2023-06-26T14:26:01;2.53;;;1.48;;
17917;SDS011;9084;50.956;3.106;2023-06-26T14:28:27;3.78;;;1.15;;
17917;SDS011;9084;50.956;3.106;2023-06-26T14:30:55;2.15;;;1.10;;
17917;SDS011;9084;50.956;3.106;2023-06-26T14:33:22;6.40;;;1.60;;
17917;SDS011;9084;50.956;3.106;2023-06-26T14:35:50;2.22;;;1.08;;
17917;SDS011;9084;50.956;3.106;2023-06-26T14:38:18;4.35;;;1.25;;
17917;SDS011;9084;50.956;3.106;2023-06-26T14:40:46;3.90;;;0.98;;
17917;SDS011;9084;50.956;3.106;2023-06-26T14:43:12;5.38;;;1.48;;
17917;SDS011;9084;50.956;3.106;2023-06-26T14:45:40;2.47;;;1.05;;
17917;SDS011;9084;50.956;3.106;2023-06-26T14:48:06;2.20;;;1.42;;
17917;SDS011;9084;50.956;3.106;2023-06-26T14:50:34;3.67;;;1.17;;
17917;SDS011;9084;50.956;3.106;2023-06-26T14:53:00;3.78;;;1.83;;
17917;SDS011;9084;50.956;3.106;2023-06-26T14:55:30;2.38;;;1.45;;
17917;SDS011;9084;50.956;3.106;2023-06-26T14:57:58;4.28;;;1.63;;
17917;SDS011;9084;50.956;3.106;2023-06-26T15:00:23;3.58;;;1.42;;
17917;SDS011;9084;50.956;3.106;2023-06-26T15:02:49;7.20;;;1.85;;
17917;SDS011;9084;50.956;3.106;2023-06-26T15:05:20;3.33;;;1.35;;
17917;SDS011;9084;50.956;3.106;2023-06-26T15:07:49;6.63;;;1.38;;
17917;SDS011;9084;50.956;3.106;2023-06-26T15:10:22;6.00;;;1.55;;
17917;SDS011;9084;50.956;3.106;2023-06-26T15:12:49;6.22;;;1.70;;
17917;SDS011;9084;50.956;3.106;2023-06-26T15:15:15;6.88;;;1.65;;
17917;SDS011;9084;50.956;3.106;2023-06-26T15:17:43;4.78;;;1.50;;